createdAt,value
2023-03-04T00:00:17.363Z,59.50
2023-03-04T00:01:17.363Z,56.70
2023-03-04T00:02:17.623Z,57.30
2023-03-04T00:03:17.380Z,56.40
2023-03-04T00:04:17.355Z,58.80
2023-03-04T00:05:17.362Z,56.60
2023-03-04T00:06:17.303Z,57.20
2023-03-04T00:07:17.294Z,57.00
2023-03-04T00:08:17.274Z,55.90
2023-03-04T00:09:17.278Z,54.80
2023-03-04T00:10:17.265Z,54.50
2023-03-04T00:11:17.253Z,56.70
2023-03-04T00:12:17.247Z,55.40
2023-03-04T00:13:17.247Z,56.40
2023-03-04T00:14:17.229Z,55.00
2023-03-04T00:15:17.228Z,54.00
2023-03-04T00:16:17.240Z,53.10
2023-03-04T00:17:17.196Z,52.50
2023-03-04T00:18:17.175Z,52.80
2023-03-04T00:19:17.177Z,53.30
2023-03-04T00:20:17.168Z,51.10
2023-03-04T00:21:17.159Z,53.30
2023-03-04T00:22:17.140Z,51.00
2023-03-04T00:23:17.136Z,51.00
2023-03-04T00:24:17.142Z,51.80
2023-03-04T00:25:17.114Z,50.30
2023-03-04T00:26:17.095Z,46.90
2023-03-04T00:27:17.142Z,49.50
2023-03-04T00:28:17.139Z,47.80
2023-03-04T00:29:17.082Z,49.60
2023-03-04T00:30:17.053Z,50.10
2023-03-04T00:31:17.086Z,47.70
2023-03-04T00:32:17.059Z,49.30
2023-03-04T00:33:17.020Z,48.10
2023-03-04T00:34:17.014Z,48.90
2023-03-04T00:35:17.017Z,48.10
2023-03-04T00:36:16.977Z,48.30
2023-03-04T00:37:16.989Z,49.20
2023-03-04T00:38:16.966Z,49.90
2023-03-04T00:39:16.953Z,46.50
2023-03-04T00:40:17.054Z,49.70
2023-03-04T00:41:16.940Z,49.20
2023-03-04T00:42:16.927Z,48.20
2023-03-04T00:43:16.928Z,48.60
2023-03-04T00:44:16.909Z,47.70
2023-03-04T00:45:16.899Z,49.80
2023-03-04T00:46:16.944Z,47.70
2023-03-04T00:47:16.866Z,47.70
2023-03-04T00:48:16.856Z,49.50
2023-03-04T00:49:16.881Z,49.10
2023-03-04T00:50:16.859Z,48.50
2023-03-04T00:51:16.820Z,47.50
2023-03-04T00:52:16.816Z,48.20
2023-03-04T00:53:16.797Z,48.90
2023-03-04T00:54:16.787Z,47.20
2023-03-04T00:55:16.811Z,47.10
2023-03-04T00:56:16.795Z,47.90
2023-03-04T00:57:16.759Z,47.60
2023-03-04T00:58:16.767Z,46.70
2023-03-04T00:59:16.738Z,47.70
2023-03-04T01:00:16.742Z,48.20
2023-03-04T01:01:16.756Z,46.60
2023-03-04T01:02:16.753Z,48.30
2023-03-04T01:03:16.698Z,47.90
2023-03-04T01:04:16.686Z,48.80
2023-03-04T01:05:16.703Z,47.10
2023-03-04T01:06:16.673Z,46.70
2023-03-04T01:07:16.664Z,47.90
2023-03-04T01:08:16.669Z,45.70
2023-03-04T01:09:16.624Z,47.60
2023-03-04T01:10:16.644Z,46.10
2023-03-04T01:11:16.605Z,47.90
2023-03-04T01:12:16.595Z,46.70
2023-03-04T01:13:16.596Z,45.80
2023-03-04T01:14:16.578Z,46.90
2023-03-04T01:15:16.587Z,45.80
2023-03-04T01:16:16.778Z,47.00
2023-03-04T01:17:16.548Z,46.90
2023-03-04T01:18:16.573Z,48.20
2023-03-04T01:19:16.528Z,46.30
2023-03-04T01:20:16.528Z,45.70
2023-03-04T01:21:16.503Z,45.50
2023-03-04T01:22:16.503Z,46.50
2023-03-04T01:23:16.488Z,46.50
2023-03-04T01:24:16.519Z,45.20
2023-03-04T01:25:16.622Z,46.50
2023-03-04T01:26:16.457Z,45.60
2023-03-04T01:27:16.440Z,43.60
2023-03-04T01:28:16.443Z,46.00
2023-03-04T01:29:16.426Z,45.00
2023-03-04T01:30:16.415Z,44.10
2023-03-04T01:31:16.430Z,44.80
2023-03-04T01:32:16.441Z,43.50
2023-03-04T01:33:16.384Z,44.50
2023-03-04T01:34:16.366Z,44.00
2023-03-04T01:35:16.367Z,44.70
2023-03-04T01:36:16.355Z,44.30
2023-03-04T01:37:16.328Z,42.80
2023-03-04T01:38:16.328Z,44.50
2023-03-04T01:39:16.317Z,45.30
2023-03-04T01:40:16.332Z,45.00
2023-03-04T01:41:16.306Z,43.50
2023-03-04T01:42:16.295Z,43.70
2023-03-04T01:43:16.289Z,44.20
2023-03-04T01:44:16.258Z,43.90
2023-03-04T01:45:16.262Z,43.70
2023-03-04T01:46:16.366Z,43.50
2023-03-04T01:47:16.230Z,42.60
2023-03-04T01:48:16.227Z,41.20
2023-03-04T01:49:16.237Z,41.60
2023-03-04T01:50:16.229Z,41.50
2023-03-04T01:51:16.199Z,40.50
2023-03-04T01:52:16.190Z,41.90
2023-03-04T01:53:16.192Z,42.10
2023-03-04T01:54:16.241Z,39.10
2023-03-04T01:55:16.164Z,39.60
2023-03-04T01:56:16.130Z,42.70
2023-03-04T01:57:16.121Z,39.70
2023-03-04T01:58:16.140Z,41.30
2023-03-04T01:59:16.114Z,41.00
2023-03-04T02:00:16.111Z,39.90
2023-03-04T02:01:16.150Z,39.30
2023-03-04T02:02:16.081Z,41.30
2023-03-04T02:03:16.064Z,39.10
2023-03-04T02:04:16.074Z,40.10
2023-03-04T02:05:16.071Z,38.60
2023-03-04T02:06:16.040Z,38.40
2023-03-04T02:07:16.045Z,38.20
2023-03-04T02:08:16.038Z,37.60
2023-03-04T02:09:15.994Z,36.30
2023-03-04T02:10:15.995Z,36.30
2023-03-04T02:11:15.982Z,36.10
2023-03-04T02:12:15.972Z,37.00
2023-03-04T02:13:15.978Z,34.90
2023-03-04T02:14:15.963Z,35.80
2023-03-04T02:15:15.957Z,34.60
2023-03-04T02:16:16.001Z,34.40
2023-03-04T02:17:15.921Z,35.10
2023-03-04T02:18:15.949Z,32.90
2023-03-04T02:19:15.911Z,32.70
2023-03-04T02:20:15.882Z,32.80
2023-03-04T02:21:15.874Z,32.70
2023-03-04T02:22:15.882Z,34.00
2023-03-04T02:23:15.916Z,32.80
2023-03-04T02:24:15.834Z,32.90
2023-03-04T02:25:15.843Z,33.50
2023-03-04T02:26:15.829Z,32.40
2023-03-04T02:27:15.802Z,34.10
2023-03-04T02:28:15.793Z,33.00
2023-03-04T02:29:15.794Z,33.00
2023-03-04T02:30:15.834Z,32.90
2023-03-04T02:31:15.802Z,34.20
2023-03-04T02:32:15.802Z,32.50
2023-03-04T02:33:15.750Z,33.40
2023-03-04T02:34:15.763Z,32.30
2023-03-04T02:35:15.746Z,32.10
2023-03-04T02:36:15.717Z,32.20
2023-03-04T02:37:15.699Z,30.60
2023-03-04T02:38:15.693Z,30.80
2023-03-04T02:39:15.691Z,31.20
2023-03-04T02:40:15.688Z,30.60
2023-03-04T02:41:15.656Z,30.00
2023-03-04T02:42:15.687Z,30.50
2023-03-04T02:43:15.639Z,28.50
2023-03-04T02:44:15.707Z,29.80
2023-03-04T02:45:15.607Z,29.60
2023-03-04T02:46:15.637Z,29.80
2023-03-04T02:47:15.587Z,29.10
2023-03-04T02:48:15.587Z,28.80
2023-03-04T02:49:15.609Z,29.00
2023-03-04T02:50:15.572Z,27.80
2023-03-04T02:51:15.549Z,27.60
2023-03-04T02:52:15.539Z,27.90
2023-03-04T02:53:15.540Z,27.30
2023-03-04T02:54:15.558Z,28.20
2023-03-04T02:55:15.505Z,26.50
2023-03-04T02:56:15.497Z,27.10
2023-03-04T02:57:15.478Z,26.40
2023-03-04T02:58:15.479Z,26.00
2023-03-04T02:59:15.488Z,26.20
2023-03-04T03:00:15.458Z,25.30
2023-03-04T03:01:15.439Z,24.60
2023-03-04T03:02:15.466Z,24.60
2023-03-04T03:03:15.417Z,24.40
2023-03-04T03:04:15.629Z,24.50
2023-03-04T03:05:15.398Z,23.60
2023-03-04T03:06:15.399Z,24.00
2023-03-04T03:07:15.391Z,24.20
2023-03-04T03:08:15.422Z,23.80
2023-03-04T03:09:15.358Z,22.90
2023-03-04T03:10:15.359Z,24.30
2023-03-04T03:11:15.341Z,22.30
2023-03-04T03:12:15.321Z,22.70
2023-03-04T03:13:15.320Z,22.60
2023-03-04T03:14:15.310Z,21.40
2023-03-04T03:15:15.300Z,21.00
2023-03-04T03:16:15.329Z,22.20
2023-03-04T03:17:15.298Z,21.90
2023-03-04T03:18:15.270Z,20.80
2023-03-04T03:19:15.250Z,22.00
2023-03-04T03:20:15.257Z,21.50
2023-03-04T03:21:15.229Z,21.60
2023-03-04T03:22:15.220Z,20.70
2023-03-04T03:23:15.205Z,21.00
2023-03-04T03:24:15.208Z,20.40
2023-03-04T03:25:15.198Z,19.80
2023-03-04T03:26:15.188Z,20.10
2023-03-04T03:27:15.161Z,19.60
2023-03-04T03:28:15.158Z,19.30
2023-03-04T03:29:15.149Z,19.50
2023-03-04T03:30:15.146Z,21.10
2023-03-04T03:31:15.125Z,19.70
2023-03-04T03:32:15.122Z,18.80
2023-03-04T03:33:15.091Z,19.10
2023-03-04T03:34:15.089Z,19.30
2023-03-04T03:35:15.077Z,19.40
2023-03-04T03:36:15.145Z,19.40
2023-03-04T03:37:15.061Z,19.60
2023-03-04T03:38:15.152Z,18.60
2023-03-04T03:39:15.026Z,19.10
2023-03-04T03:40:15.038Z,18.70
2023-03-04T03:41:15.007Z,19.00
2023-03-04T03:42:15.110Z,18.20
2023-03-04T03:43:14.990Z,19.40
2023-03-04T03:44:14.985Z,18.60
2023-03-04T03:45:14.966Z,18.30
2023-03-04T03:46:14.961Z,17.80
2023-03-04T03:47:14.941Z,18.50
2023-03-04T03:48:14.938Z,18.70
2023-03-04T03:49:14.927Z,18.50
2023-03-04T03:50:14.933Z,18.80
2023-03-04T03:51:14.901Z,19.00
2023-03-04T03:52:14.901Z,18.50
2023-03-04T03:53:14.879Z,19.00
2023-03-04T03:54:14.888Z,18.90
2023-03-04T03:55:14.873Z,18.30
2023-03-04T03:56:14.929Z,17.70
2023-03-04T03:57:14.831Z,17.70
2023-03-04T03:58:14.829Z,17.50
2023-03-04T03:59:14.837Z,17.60
2023-03-04T04:00:14.850Z,18.10
2023-03-04T04:01:14.803Z,17.30
2023-03-04T04:02:14.880Z,16.90
2023-03-04T04:03:14.770Z,18.00
2023-03-04T04:04:14.781Z,17.70
2023-03-04T04:05:14.753Z,18.30
2023-03-04T04:06:14.741Z,17.70
2023-03-04T04:07:14.751Z,16.90
2023-03-04T04:08:14.724Z,17.10
2023-03-04T04:09:14.710Z,17.10
2023-03-04T04:10:14.722Z,16.40
2023-03-04T04:11:14.688Z,17.40
2023-03-04T04:12:14.692Z,17.40
2023-03-04T04:13:14.663Z,17.00
2023-03-04T04:14:14.682Z,15.90
2023-03-04T04:15:14.652Z,17.20
2023-03-04T04:16:14.639Z,17.60
2023-03-04T04:17:14.626Z,16.40
2023-03-04T04:18:14.606Z,17.00
2023-03-04T04:19:14.593Z,16.30
2023-03-04T04:20:14.617Z,15.80
2023-03-04T04:21:14.582Z,16.00
2023-03-04T04:22:14.565Z,17.00
2023-03-04T04:23:14.548Z,17.60
2023-03-04T04:24:14.531Z,17.00
2023-03-04T04:25:14.553Z,17.00
2023-03-04T04:26:14.514Z,17.20
2023-03-04T04:27:14.503Z,16.60
2023-03-04T04:28:14.488Z,16.10
2023-03-04T04:29:14.491Z,16.10
2023-03-04T04:30:14.481Z,16.50
2023-03-04T04:31:14.525Z,16.10
2023-03-04T04:32:14.521Z,17.10
2023-03-04T04:33:14.439Z,16.90
2023-03-04T04:34:14.416Z,17.30
2023-03-04T04:35:14.428Z,16.10
2023-03-04T04:36:14.439Z,15.80
2023-03-04T04:37:14.489Z,16.10
2023-03-04T04:38:14.410Z,17.10
2023-03-04T04:39:14.376Z,16.60
2023-03-04T04:40:14.452Z,16.80
2023-03-04T04:41:14.357Z,17.00
2023-03-04T04:42:14.382Z,16.80
2023-03-04T04:43:14.350Z,16.40
2023-03-04T04:44:14.328Z,16.10
2023-03-04T04:45:14.340Z,16.20
2023-03-04T04:46:14.388Z,16.10
2023-03-04T04:47:14.295Z,15.70
2023-03-04T04:48:14.269Z,16.40
2023-03-04T04:49:14.278Z,17.00
2023-03-04T04:50:14.259Z,15.70
2023-03-04T04:51:14.239Z,16.20
2023-03-04T04:52:14.405Z,16.10
2023-03-04T04:53:14.225Z,16.10
2023-03-04T04:54:14.208Z,17.10
2023-03-04T04:55:14.198Z,15.30
2023-03-04T04:56:14.220Z,16.30
2023-03-04T04:57:14.184Z,14.90
2023-03-04T04:58:14.151Z,15.70
2023-03-04T04:59:14.155Z,16.60
2023-03-04T05:00:14.270Z,15.40
2023-03-04T05:01:14.244Z,16.50
2023-03-04T05:02:14.124Z,15.70
2023-03-04T05:03:14.146Z,16.00
2023-03-04T05:04:14.105Z,15.80
2023-03-04T05:05:14.110Z,16.20
2023-03-04T05:06:14.073Z,16.10
2023-03-04T05:07:14.064Z,16.00
2023-03-04T05:08:14.126Z,16.20
2023-03-04T05:09:14.055Z,16.00
2023-03-04T05:10:14.056Z,16.90
2023-03-04T05:11:14.025Z,16.70
2023-03-04T05:12:14.014Z,16.00
2023-03-04T05:13:14.006Z,15.70
2023-03-04T05:14:13.995Z,16.20
2023-03-04T05:15:13.997Z,16.50
2023-03-04T05:16:14.024Z,15.70
2023-03-04T05:17:13.976Z,16.30
2023-03-04T05:18:13.944Z,16.70
2023-03-04T05:19:13.941Z,16.50
2023-03-04T05:20:13.975Z,16.50
2023-03-04T05:21:13.909Z,16.30
2023-03-04T05:22:13.899Z,16.50
2023-03-04T05:23:13.894Z,16.40
2023-03-04T05:24:13.910Z,16.40
2023-03-04T05:25:13.880Z,16.30
2023-03-04T05:26:13.929Z,16.40
2023-03-04T05:27:13.858Z,16.60
2023-03-04T05:28:13.840Z,16.20
2023-03-04T05:29:13.832Z,16.70
2023-03-04T05:30:13.873Z,16.30
2023-03-04T05:31:13.816Z,16.90
2023-03-04T05:32:13.838Z,14.80
2023-03-04T05:33:13.779Z,16.20
2023-03-04T05:34:13.779Z,16.00
2023-03-04T05:35:13.771Z,16.50
2023-03-04T05:36:13.749Z,16.10
2023-03-04T05:37:13.737Z,15.90
2023-03-04T05:38:13.720Z,16.60
2023-03-04T05:39:13.711Z,16.40
2023-03-04T05:40:13.752Z,16.50
2023-03-04T05:41:13.704Z,16.70
2023-03-04T05:42:13.706Z,16.40
2023-03-04T05:43:13.677Z,17.10
2023-03-04T05:44:13.664Z,16.80
2023-03-04T05:45:13.651Z,18.60
2023-03-04T05:46:13.681Z,17.40
2023-03-04T05:47:13.630Z,16.50
2023-03-04T05:48:13.623Z,16.80
2023-03-04T05:49:13.615Z,17.00
2023-03-04T05:50:13.604Z,17.60
2023-03-04T05:51:13.593Z,15.90
2023-03-04T05:52:13.651Z,16.60
2023-03-04T05:53:13.568Z,16.90
2023-03-04T05:54:13.545Z,17.10
2023-03-04T05:55:13.542Z,17.50
2023-03-04T05:56:13.542Z,18.10
2023-03-04T05:57:13.512Z,18.60
2023-03-04T05:58:13.514Z,17.00
2023-03-04T05:59:13.501Z,16.60
2023-03-04T06:00:13.536Z,15.70
2023-03-04T06:01:13.483Z,15.00
2023-03-04T06:02:13.474Z,14.40
2023-03-04T06:03:13.484Z,14.60
2023-03-04T06:04:13.560Z,15.90
2023-03-04T06:05:13.434Z,15.00
2023-03-04T06:06:13.761Z,14.60
2023-03-04T06:07:13.413Z,14.70
2023-03-04T06:08:13.423Z,15.00
2023-03-04T06:09:13.383Z,14.50
2023-03-04T06:10:13.377Z,13.60
2023-03-04T06:11:13.403Z,14.50
2023-03-04T06:12:13.418Z,14.00
2023-03-04T06:13:13.339Z,13.60
2023-03-04T06:14:13.394Z,14.00
2023-03-04T06:15:13.316Z,13.80
2023-03-04T06:16:13.333Z,14.50
2023-03-04T06:17:13.294Z,14.00
2023-03-04T06:18:13.286Z,13.80
2023-03-04T06:19:13.294Z,14.20
2023-03-04T06:20:14.023Z,13.80
2023-03-04T06:21:13.256Z,13.40
2023-03-04T06:22:13.265Z,14.00
2023-03-04T06:23:13.351Z,13.70
2023-03-04T06:24:13.246Z,13.60
2023-03-04T06:25:13.215Z,13.20
2023-03-04T06:26:13.217Z,14.00
2023-03-04T06:27:13.184Z,14.20
2023-03-04T06:28:13.189Z,13.30
2023-03-04T06:29:13.166Z,13.30
2023-03-04T06:30:13.178Z,12.60
2023-03-04T06:31:13.212Z,12.60
2023-03-04T06:32:13.212Z,12.70
2023-03-04T06:33:13.141Z,12.90
2023-03-04T06:34:13.125Z,12.60
2023-03-04T06:35:13.105Z,12.10
2023-03-04T06:36:13.107Z,12.60
2023-03-04T06:37:13.072Z,12.30
2023-03-04T06:38:13.063Z,12.20
2023-03-04T06:39:13.053Z,11.70
2023-03-04T06:40:13.083Z,12.20
2023-03-04T06:41:13.043Z,11.70
2023-03-04T06:42:13.019Z,11.60
2023-03-04T06:43:13.006Z,11.80
2023-03-04T06:44:13.076Z,11.50
2023-03-04T06:45:12.993Z,12.10
2023-03-04T06:46:13.131Z,11.90
2023-03-04T06:47:12.966Z,12.30
2023-03-04T06:48:12.945Z,11.90
2023-03-04T06:49:12.945Z,11.90
2023-03-04T06:50:12.975Z,11.50
2023-03-04T06:51:12.925Z,11.50
2023-03-04T06:52:12.995Z,10.90
2023-03-04T06:53:12.904Z,10.90
2023-03-04T06:54:12.905Z,11.80
2023-03-04T06:55:12.886Z,10.80
2023-03-04T06:56:12.925Z,10.90
2023-03-04T06:57:12.986Z,11.20
2023-03-04T06:58:12.847Z,10.40
2023-03-04T06:59:12.842Z,10.90
2023-03-04T07:00:12.904Z,10.30
2023-03-04T07:01:13.243Z,10.90
2023-03-04T07:02:12.829Z,11.00
2023-03-04T07:03:12.789Z,10.60
2023-03-04T07:04:12.832Z,10.30
2023-03-04T07:05:12.767Z,10.30
2023-03-04T07:06:12.765Z,10.70
2023-03-04T07:07:12.762Z,10.10
2023-03-04T07:08:12.727Z,10.40
2023-03-04T07:09:13.676Z,10.10
2023-03-04T07:10:12.720Z,9.60
2023-03-04T07:11:12.710Z,10.50
2023-03-04T07:12:12.697Z,9.50
2023-03-04T07:13:12.676Z,9.50
2023-03-04T07:14:12.740Z,9.80
2023-03-04T07:15:12.663Z,9.90
2023-03-04T07:16:12.680Z,9.90
2023-03-04T07:17:12.845Z,9.40
2023-03-04T07:18:12.643Z,9.80
2023-03-04T07:19:12.616Z,9.20
2023-03-04T07:20:12.623Z,9.40
2023-03-04T07:21:12.597Z,8.80
2023-03-04T07:22:12.580Z,8.40
2023-03-04T07:23:12.569Z,9.80
2023-03-04T07:24:12.586Z,8.30
2023-03-04T07:25:12.712Z,9.10
2023-03-04T07:26:13.588Z,8.60
2023-03-04T07:27:12.549Z,8.00
2023-03-04T07:28:12.538Z,9.20
2023-03-04T07:29:12.507Z,8.30
2023-03-04T07:30:12.491Z,8.50
2023-03-04T07:31:12.835Z,7.50
2023-03-04T07:32:12.643Z,7.60
2023-03-04T07:33:12.464Z,6.60
2023-03-04T07:34:12.449Z,7.20
2023-03-04T07:35:12.466Z,5.70
2023-03-04T07:36:12.467Z,4.60
2023-03-04T07:37:12.440Z,4.90
2023-03-04T07:38:12.409Z,5.00
2023-03-04T07:39:12.401Z,4.40
2023-03-04T07:40:12.400Z,4.60
2023-03-04T07:41:12.427Z,4.60
2023-03-04T07:42:12.358Z,4.10
2023-03-04T07:43:12.349Z,4.60
2023-03-04T07:44:13.393Z,4.30
2023-03-04T07:45:12.358Z,4.60
2023-03-04T07:46:12.542Z,5.10
2023-03-04T07:47:12.312Z,6.80
2023-03-04T07:48:12.290Z,6.90
2023-03-04T07:49:12.290Z,7.50
2023-03-04T07:50:12.272Z,7.50
2023-03-04T07:51:12.273Z,6.90
2023-03-04T07:52:12.260Z,7.40
2023-03-04T07:53:12.244Z,8.30
2023-03-04T07:54:12.231Z,9.60
2023-03-04T07:55:12.223Z,14.00
2023-03-04T07:56:12.323Z,13.70
2023-03-04T07:57:12.210Z,11.80
2023-03-04T07:58:12.205Z,14.20
2023-03-04T07:59:12.184Z,13.50
2023-03-04T08:00:12.169Z,14.80
2023-03-04T08:01:12.165Z,20.60
2023-03-04T08:02:12.213Z,23.20
2023-03-04T08:03:12.133Z,21.10
2023-03-04T08:04:12.188Z,16.30
2023-03-04T08:05:12.125Z,12.30
2023-03-04T08:06:12.123Z,10.10
2023-03-04T08:07:12.108Z,10.00
2023-03-04T08:08:12.089Z,8.30
2023-03-04T08:09:12.065Z,5.90
2023-03-04T08:10:12.054Z,5.00
2023-03-04T08:11:12.060Z,4.80
2023-03-04T08:12:12.083Z,5.10
2023-03-04T08:13:12.028Z,4.40
2023-03-04T08:14:12.065Z,4.30
2023-03-04T08:15:12.004Z,4.50
2023-03-04T08:16:12.104Z,4.80
2023-03-04T08:17:11.996Z,4.10
2023-03-04T08:18:12.008Z,4.00
2023-03-04T08:19:12.492Z,3.80
2023-03-04T08:20:11.973Z,4.10
2023-03-04T08:21:11.946Z,3.80
2023-03-04T08:22:11.963Z,3.70
2023-03-04T08:23:11.914Z,4.10
2023-03-04T08:24:11.929Z,3.60
2023-03-04T08:25:11.913Z,4.30
2023-03-04T08:26:11.985Z,4.10
2023-03-04T08:27:11.872Z,3.90
2023-03-04T08:28:11.861Z,4.10
2023-03-04T08:29:11.857Z,3.80
2023-03-04T08:30:11.916Z,4.30
2023-03-04T08:31:11.958Z,3.80
2023-03-04T08:32:11.899Z,4.60
2023-03-04T08:33:11.809Z,3.80
2023-03-04T08:34:11.827Z,3.20
2023-03-04T08:35:11.809Z,3.90
2023-03-04T08:36:11.805Z,3.90
2023-03-04T08:37:11.775Z,3.90
2023-03-04T08:38:11.780Z,3.80
2023-03-04T08:39:11.747Z,3.60
2023-03-04T08:40:11.725Z,3.60
2023-03-04T08:41:11.723Z,3.70
2023-03-04T08:42:11.800Z,4.00
2023-03-04T08:43:11.705Z,3.60
2023-03-04T08:44:11.741Z,3.40
2023-03-04T08:45:11.677Z,3.30
2023-03-04T08:46:11.726Z,3.70
2023-03-04T08:47:11.660Z,3.50
2023-03-04T08:48:11.645Z,4.10
2023-03-04T08:49:11.636Z,3.40
2023-03-04T08:50:11.623Z,3.70
2023-03-04T08:51:11.620Z,3.70
2023-03-04T08:52:11.664Z,3.90
2023-03-04T08:53:11.597Z,3.30
2023-03-04T08:54:11.596Z,3.40
2023-03-04T08:55:11.566Z,3.70
2023-03-04T08:56:11.582Z,3.40
2023-03-04T08:57:11.556Z,3.40
2023-03-04T08:58:11.565Z,3.70
2023-03-04T08:59:11.532Z,3.50
2023-03-04T09:00:11.508Z,3.40
2023-03-04T09:01:11.507Z,3.30
2023-03-04T09:02:11.739Z,3.50
2023-03-04T09:03:11.641Z,3.70
2023-03-04T09:04:11.480Z,3.70
2023-03-04T09:05:11.462Z,4.20
2023-03-04T09:06:11.449Z,6.50
2023-03-04T09:07:11.441Z,6.50
2023-03-04T09:08:11.463Z,9.30
2023-03-04T09:09:11.431Z,9.00
2023-03-04T09:10:11.399Z,8.70
2023-03-04T09:11:11.453Z,8.20
2023-03-04T09:12:11.411Z,7.50
2023-03-04T09:13:11.372Z,6.70
2023-03-04T09:14:11.370Z,4.70
2023-03-04T09:15:12.139Z,3.60
2023-03-04T09:16:11.412Z,3.60
2023-03-04T09:17:11.338Z,3.10
2023-03-04T09:18:12.038Z,3.00
2023-03-04T09:19:11.309Z,3.40
2023-03-04T09:20:11.303Z,3.10
2023-03-04T09:21:11.307Z,3.20
2023-03-04T09:22:11.360Z,3.90
2023-03-04T09:23:11.289Z,3.60
2023-03-04T09:24:11.261Z,3.30
2023-03-04T09:25:13.104Z,5.10
2023-03-04T09:26:11.452Z,4.00
2023-03-04T09:27:11.254Z,3.50
2023-03-04T09:28:11.262Z,3.60
2023-03-04T09:29:11.204Z,3.50
2023-03-04T09:30:11.185Z,3.40
2023-03-04T09:31:11.207Z,2.80
2023-03-04T09:32:11.261Z,2.90
2023-03-04T09:33:11.164Z,2.50
2023-03-04T09:34:11.203Z,2.60
2023-03-04T09:35:11.152Z,2.80
2023-03-04T09:36:11.219Z,2.60
2023-03-04T09:37:11.127Z,2.50
2023-03-04T09:38:11.143Z,2.80
2023-03-04T09:39:11.093Z,2.70
2023-03-04T09:40:11.191Z,2.50
2023-03-04T09:41:11.174Z,3.30
2023-03-04T09:42:11.144Z,3.10
2023-03-04T09:43:11.091Z,2.60
2023-03-04T09:44:11.066Z,3.30
2023-03-04T09:45:11.034Z,3.30
2023-03-04T09:46:11.121Z,3.00
2023-03-04T09:47:11.004Z,2.50
2023-03-04T09:48:11.009Z,2.40
2023-03-04T09:49:10.985Z,2.80
2023-03-04T09:50:10.977Z,2.70
2023-03-04T09:51:10.970Z,3.00
2023-03-04T09:52:10.955Z,2.30
2023-03-04T09:53:10.952Z,3.40
2023-03-04T09:54:10.986Z,2.70
2023-03-04T09:55:10.905Z,2.90
2023-03-04T09:56:10.925Z,2.60
2023-03-04T09:57:10.896Z,2.70
2023-03-04T09:58:10.914Z,2.70
2023-03-04T09:59:10.866Z,3.00
2023-03-04T10:00:11.823Z,2.80
2023-03-04T10:01:10.845Z,2.70
2023-03-04T10:02:10.884Z,2.60
2023-03-04T10:03:10.883Z,3.10
2023-03-04T10:04:10.845Z,2.70
2023-03-04T10:05:10.798Z,3.10
2023-03-04T10:06:10.815Z,2.80
2023-03-04T10:07:10.798Z,3.50
2023-03-04T10:08:10.920Z,3.80
2023-03-04T10:09:10.747Z,3.50
2023-03-04T10:10:10.768Z,3.00
2023-03-04T10:11:11.143Z,2.20
2023-03-04T10:12:10.942Z,2.50
2023-03-04T10:13:11.914Z,2.40
2023-03-04T10:14:10.718Z,1.80
2023-03-04T10:15:10.697Z,2.20
2023-03-04T10:16:10.765Z,1.90
2023-03-04T10:17:10.684Z,2.60
2023-03-04T10:18:10.658Z,2.40
2023-03-04T10:19:10.652Z,3.00
2023-03-04T10:20:10.678Z,3.10
2023-03-04T10:21:10.650Z,3.10
2023-03-04T10:22:10.652Z,2.70
2023-03-04T10:23:10.620Z,2.60
2023-03-04T10:24:10.728Z,2.80
2023-03-04T10:25:10.638Z,2.90
2023-03-04T10:26:10.648Z,2.40
2023-03-04T10:27:10.579Z,3.10
2023-03-04T10:28:10.548Z,3.20
2023-03-04T10:29:10.536Z,3.00
2023-03-04T10:30:10.562Z,3.00
2023-03-04T10:31:10.579Z,2.90
2023-03-04T10:32:10.563Z,2.10
2023-03-04T10:33:10.491Z,2.40
2023-03-04T10:34:10.485Z,2.20
2023-03-04T10:35:10.473Z,2.10
2023-03-04T10:36:10.472Z,2.50
2023-03-04T10:37:10.451Z,2.40
2023-03-04T10:38:10.575Z,2.10
2023-03-04T10:39:10.420Z,2.50
2023-03-04T10:40:10.413Z,2.20
2023-03-04T10:41:10.399Z,2.40
2023-03-04T10:42:11.430Z,4.10
2023-03-04T10:43:10.419Z,5.60
2023-03-04T10:44:10.389Z,6.10
2023-03-04T10:45:10.359Z,8.60
2023-03-04T10:46:10.410Z,9.40
2023-03-04T10:47:10.350Z,9.30
2023-03-04T10:48:10.318Z,14.60
2023-03-04T10:49:10.307Z,9.20
2023-03-04T10:50:10.330Z,8.90
2023-03-04T10:51:10.278Z,6.80
2023-03-04T10:52:10.268Z,6.80
2023-03-04T10:53:10.276Z,6.90
2023-03-04T10:54:10.284Z,7.10
2023-03-04T10:55:10.248Z,6.00
2023-03-04T10:56:10.280Z,5.20
2023-03-04T10:57:10.213Z,5.60
2023-03-04T10:58:10.258Z,5.00
2023-03-04T10:59:10.194Z,4.60
2023-03-04T11:00:10.180Z,4.30
2023-03-04T11:01:10.194Z,4.90
2023-03-04T11:02:10.155Z,4.90
2023-03-04T11:03:10.214Z,5.40
2023-03-04T11:04:10.168Z,5.00
2023-03-04T11:05:10.129Z,6.10
2023-03-04T11:06:10.105Z,5.30
2023-03-04T11:07:10.106Z,5.70
2023-03-04T11:08:10.138Z,5.20
2023-03-04T11:09:10.085Z,6.00
2023-03-04T11:10:10.092Z,5.50
2023-03-04T11:11:10.075Z,5.80
2023-03-04T11:12:10.064Z,6.20
2023-03-04T11:13:10.047Z,5.60
2023-03-04T11:14:10.027Z,5.80
2023-03-04T11:15:10.060Z,5.10
2023-03-04T11:16:10.062Z,5.20
2023-03-04T11:17:10.007Z,5.20
2023-03-04T11:18:10.047Z,6.30
2023-03-04T11:19:09.965Z,5.90
2023-03-04T11:20:10.045Z,5.50
2023-03-04T11:21:09.985Z,5.70
2023-03-04T11:22:09.929Z,5.00
2023-03-04T11:23:09.994Z,4.40
2023-03-04T11:24:25.718Z,5.20
2023-03-04T11:25:10.895Z,5.40
2023-03-04T11:26:09.977Z,4.50
2023-03-04T11:27:09.882Z,4.80
2023-03-04T11:28:11.442Z,5.10
2023-03-04T11:29:09.858Z,5.50
2023-03-04T11:30:09.962Z,5.30
2023-03-04T11:31:09.832Z,5.50
2023-03-04T11:32:10.058Z,5.20
2023-03-04T11:33:09.815Z,5.80
2023-03-04T11:34:11.648Z,5.80
2023-03-04T11:35:09.789Z,5.20
2023-03-04T11:36:09.819Z,5.50
2023-03-04T11:37:09.773Z,5.10
2023-03-04T11:38:09.766Z,5.20
2023-03-04T11:39:09.759Z,5.20
2023-03-04T11:40:09.751Z,5.70
2023-03-04T11:41:09.765Z,5.10
2023-03-04T11:42:09.735Z,5.60
2023-03-04T11:43:09.728Z,5.10
2023-03-04T11:44:09.771Z,5.90
2023-03-04T11:45:26.152Z,6.20
2023-03-04T11:46:10.856Z,5.40
2023-03-04T11:47:09.694Z,5.30
2023-03-04T11:48:09.690Z,4.90
2023-03-04T11:49:09.726Z,5.20
2023-03-04T11:50:09.778Z,5.60
2023-03-04T11:51:11.436Z,5.80
2023-03-04T11:52:09.712Z,5.40
2023-03-04T11:53:09.620Z,6.00
2023-03-04T11:54:09.733Z,5.80
2023-03-04T11:55:09.597Z,5.90
2023-03-04T11:56:09.621Z,6.00
2023-03-04T11:57:11.841Z,6.70
2023-03-04T11:58:09.632Z,6.50
2023-03-04T11:59:09.570Z,6.40
2023-03-04T12:00:09.564Z,5.90
2023-03-04T12:01:09.541Z,5.70
2023-03-04T12:02:09.579Z,6.20
2023-03-04T12:03:11.483Z,5.70
2023-03-04T12:04:09.691Z,5.10
2023-03-04T12:05:09.502Z,4.80
2023-03-04T12:06:09.559Z,5.10
2023-03-04T12:07:09.590Z,5.20
2023-03-04T12:08:09.448Z,5.50
2023-03-04T12:09:09.457Z,5.60
2023-03-04T12:10:09.486Z,6.00
2023-03-04T12:11:09.461Z,5.30
2023-03-04T12:12:09.446Z,4.80
2023-03-04T12:13:09.420Z,5.00
2023-03-04T12:14:09.454Z,5.40
2023-03-04T12:15:09.385Z,5.10
2023-03-04T12:16:09.462Z,4.60
2023-03-04T12:17:09.370Z,5.10
2023-03-04T12:18:09.349Z,4.90
2023-03-04T12:19:09.342Z,4.60
2023-03-04T12:20:09.385Z,4.50
2023-03-04T12:21:09.340Z,4.60
2023-03-04T12:22:09.326Z,4.30
2023-03-04T12:23:09.316Z,4.10
2023-03-04T12:24:09.286Z,4.10
2023-03-04T12:25:09.264Z,3.80
2023-03-04T12:26:09.322Z,4.10
2023-03-04T12:27:09.245Z,4.50
2023-03-04T12:28:09.257Z,4.30
2023-03-04T12:29:09.245Z,4.60
2023-03-04T12:30:09.227Z,4.80
2023-03-04T12:31:09.267Z,4.10
2023-03-04T12:32:09.228Z,4.40
2023-03-04T12:33:09.210Z,4.50
2023-03-04T12:34:09.193Z,4.90
2023-03-04T12:35:09.164Z,4.60
2023-03-04T12:36:09.154Z,4.90
2023-03-04T12:37:09.153Z,4.60
2023-03-04T12:38:09.129Z,5.10
2023-03-04T12:39:09.126Z,4.40
2023-03-04T12:40:09.095Z,5.10
2023-03-04T12:41:09.114Z,4.00
2023-03-04T12:42:09.127Z,4.20
2023-03-04T12:43:09.127Z,3.80
2023-03-04T12:44:09.129Z,3.50
2023-03-04T12:45:09.045Z,3.90
2023-03-04T12:46:09.092Z,4.10
2023-03-04T12:47:09.026Z,4.70
2023-03-04T12:48:09.022Z,4.60
2023-03-04T12:49:09.006Z,4.70
2023-03-04T12:50:09.055Z,5.00
2023-03-04T12:51:08.977Z,4.50
2023-03-04T12:52:09.068Z,4.40
2023-03-04T12:53:08.958Z,4.40
2023-03-04T12:54:09.065Z,4.10
2023-03-04T12:55:08.966Z,4.80
2023-03-04T12:56:10.359Z,4.10
2023-03-04T12:57:08.910Z,3.70
2023-03-04T12:58:08.931Z,4.00
2023-03-04T12:59:08.917Z,3.60
2023-03-04T13:00:08.887Z,3.50
2023-03-04T13:01:08.869Z,4.40
2023-03-04T13:02:09.042Z,3.40
2023-03-04T13:03:08.959Z,3.60